createdAt,value
2019-03-11T00:02:01.838Z,0.60
2019-03-11T00:05:09.419Z,0.70
2019-03-11T00:08:16.596Z,0.50
2019-03-11T00:11:23.775Z,0.70
2019-03-11T00:14:31.160Z,0.67
2019-03-11T00:17:38.553Z,0.60
2019-03-11T00:20:46.557Z,0.67
2019-03-11T00:23:54.061Z,0.50
2019-03-11T00:27:01.338Z,0.70
2019-03-11T00:30:09.523Z,0.73
2019-03-11T00:33:16.699Z,0.83
2019-03-11T00:36:24.080Z,1.20
2019-03-11T00:39:31.703Z,0.90
2019-03-11T00:45:54.758Z,0.70
2019-03-11T00:49:02.337Z,0.80
2019-03-11T00:52:09.630Z,1.13
2019-03-11T00:55:16.808Z,0.60
2019-03-11T00:58:23.987Z,0.83
2019-03-11T01:01:31.262Z,0.80
2019-03-11T01:04:38.563Z,0.60
2019-03-11T01:07:46.003Z,1.10
2019-03-11T01:10:53.399Z,1.60
2019-03-11T01:14:04.477Z,0.70
2019-03-11T01:17:12.071Z,0.90
2019-03-11T01:20:19.877Z,0.93
2019-03-11T01:23:27.483Z,1.00
2019-03-11T01:26:34.975Z,1.20
2019-03-11T01:29:42.264Z,1.33
2019-03-11T01:32:50.268Z,0.73
2019-03-11T01:35:57.960Z,0.40
2019-03-11T01:39:06.496Z,0.70
2019-03-11T01:42:14.302Z,0.60
2019-03-11T01:45:21.712Z,1.00
2019-03-11T01:48:29.083Z,0.60
2019-03-11T01:51:36.375Z,0.43
2019-03-11T01:54:43.817Z,0.67
2019-03-11T01:57:51.089Z,1.03
2019-03-11T02:00:58.465Z,0.50
2019-03-11T02:04:05.853Z,0.67
2019-03-11T02:07:13.446Z,0.73
2019-03-11T02:10:20.932Z,0.77
2019-03-11T02:13:28.833Z,0.90
2019-03-11T02:16:36.437Z,0.80
2019-03-11T02:19:44.280Z,1.00
2019-03-11T02:22:51.778Z,0.83
2019-03-11T02:25:59.165Z,0.50
2019-03-11T02:29:07.164Z,0.60
2019-03-11T02:32:15.054Z,0.70
2019-03-11T02:35:27.492Z,0.70
2019-03-11T02:38:35.269Z,0.70
2019-03-11T02:41:42.848Z,0.77
2019-03-11T02:44:50.470Z,0.70
2019-03-11T02:47:57.843Z,0.63
2019-03-11T02:51:05.725Z,0.80
2019-03-11T02:54:13.157Z,0.37
2019-03-11T02:57:20.613Z,0.60
2019-03-11T03:00:28.156Z,0.50
2019-03-11T03:03:40.322Z,0.70
2019-03-11T03:06:48.292Z,0.67
2019-03-11T03:09:55.674Z,1.53
2019-03-11T03:13:03.165Z,1.23
2019-03-11T03:16:10.555Z,0.70
2019-03-11T03:19:17.938Z,0.70
2019-03-11T03:22:25.571Z,0.67
2019-03-11T03:25:34.948Z,1.27
2019-03-11T03:28:42.221Z,0.70
2019-03-11T03:31:50.008Z,0.63
2019-03-11T03:34:57.567Z,0.53
2019-03-11T03:38:05.368Z,0.53
2019-03-11T03:41:13.073Z,0.70
2019-03-11T03:44:20.847Z,1.33
2019-03-11T03:47:28.179Z,0.80
2019-03-11T03:50:37.529Z,0.77
2019-03-11T03:53:45.092Z,1.23
2019-03-11T03:56:54.246Z,0.60
2019-03-11T04:00:01.910Z,0.60
2019-03-11T04:03:09.411Z,0.70
2019-03-11T04:06:16.805Z,1.07
2019-03-11T04:09:24.528Z,0.50
2019-03-11T04:12:32.244Z,0.67
2019-03-11T04:15:39.851Z,0.90
2019-03-11T04:18:55.357Z,0.80
2019-03-11T04:22:02.831Z,0.83
2019-03-11T04:25:10.797Z,0.87
2019-03-11T04:28:18.194Z,0.60
2019-03-11T04:31:25.679Z,0.90
2019-03-11T04:34:35.880Z,0.90
2019-03-11T04:37:42.454Z,0.63
2019-03-11T04:40:50.036Z,0.80
2019-03-11T04:43:58.212Z,0.60
2019-03-11T04:47:05.711Z,0.60
2019-03-11T04:50:13.753Z,1.53
2019-03-11T04:53:21.413Z,0.90
2019-03-11T04:56:29.494Z,0.60
2019-03-11T04:59:37.162Z,1.20
2019-03-11T05:02:44.675Z,1.00
2019-03-11T05:05:52.565Z,0.50
2019-03-11T05:09:00.226Z,0.80
2019-03-11T05:12:08.482Z,0.43
2019-03-11T05:15:16.132Z,0.53
2019-03-11T05:18:24.608Z,0.50
2019-03-11T05:21:32.409Z,1.00
2019-03-11T05:24:39.738Z,0.50
2019-03-11T05:27:47.259Z,1.10
2019-03-11T05:30:54.707Z,0.90
2019-03-11T05:34:02.279Z,0.90
2019-03-11T05:37:09.459Z,1.07
2019-03-11T05:40:16.983Z,0.57
2019-03-11T05:43:24.289Z,0.93
2019-03-11T05:46:31.565Z,0.70
2019-03-11T05:49:39.557Z,0.53
2019-03-11T05:52:46.943Z,0.80
2019-03-11T05:55:54.429Z,0.40
2019-03-11T05:59:02.187Z,0.50
2019-03-11T06:02:09.470Z,0.77
2019-03-11T06:05:17.205Z,0.40
2019-03-11T06:08:41.756Z,0.63
2019-03-11T06:11:49.356Z,0.70
2019-03-11T06:14:57.721Z,0.77
2019-03-11T06:18:05.463Z,0.80
2019-03-11T06:21:32.522Z,0.27
2019-03-11T06:24:39.827Z,0.73
2019-03-11T06:27:47.409Z,0.77
2019-03-11T06:30:54.604Z,0.60
2019-03-11T06:34:02.904Z,1.27
2019-03-11T06:37:10.562Z,0.40
2019-03-11T06:40:18.167Z,0.60
2019-03-11T06:46:40.314Z,0.47
2019-03-11T06:49:47.600Z,0.70
2019-03-11T06:52:55.213Z,0.50
2019-03-11T06:56:03.011Z,0.60
2019-03-11T06:59:10.409Z,0.47
2019-03-11T07:02:17.581Z,0.50
2019-03-11T07:05:25.017Z,0.60
2019-03-11T07:08:32.793Z,0.43
2019-03-11T07:11:40.197Z,0.57
2019-03-11T07:14:47.380Z,0.83
2019-03-11T07:17:55.582Z,0.37
2019-03-11T07:21:03.165Z,0.40
2019-03-11T07:24:11.409Z,0.57
2019-03-11T07:27:19.491Z,0.30
2019-03-11T07:30:26.789Z,0.50
2019-03-11T07:33:34.416Z,0.47
2019-03-11T07:36:41.799Z,0.47
2019-03-11T07:39:49.403Z,0.33
2019-03-11T07:42:56.796Z,0.13
2019-03-11T07:46:04.755Z,0.00
2019-03-11T07:49:12.425Z,0.30
2019-03-11T07:52:20.287Z,0.00
2019-03-11T07:55:27.825Z,0.00
2019-03-11T07:58:35.193Z,0.00
2019-03-11T08:01:43.205Z,0.00
2019-03-11T08:04:51.024Z,0.00
2019-03-11T08:07:58.638Z,0.00
2019-03-11T08:11:06.103Z,0.00
2019-03-11T08:14:13.586Z,0.00
2019-03-11T08:17:20.830Z,0.00
2019-03-11T08:20:28.281Z,0.10
2019-03-11T08:23:35.965Z,0.03
2019-03-11T08:26:43.883Z,0.00
2019-03-11T08:29:51.698Z,0.10
2019-03-11T08:32:59.212Z,0.00
2019-03-11T08:36:06.678Z,0.20
2019-03-11T08:39:13.950Z,0.00
2019-03-11T08:42:21.350Z,0.00
2019-03-11T08:45:29.059Z,0.00
2019-03-11T08:48:36.745Z,0.00
2019-03-11T08:51:44.134Z,0.10
2019-03-11T08:54:52.060Z,0.00
2019-03-11T08:57:59.858Z,0.00
2019-03-11T09:01:07.359Z,0.10
2019-03-11T09:04:15.169Z,0.00
2019-03-11T09:07:22.973Z,0.00
2019-03-11T09:10:30.344Z,0.27
2019-03-11T09:13:38.295Z,0.00
2019-03-11T09:16:45.874Z,0.10
2019-03-11T09:19:53.568Z,0.10
2019-03-11T09:23:00.846Z,0.00
2019-03-11T09:26:08.462Z,0.00
2019-03-11T09:29:16.479Z,0.10
2019-03-11T09:32:24.023Z,0.10
2019-03-11T09:35:31.568Z,0.10
2019-03-11T09:38:39.436Z,0.00
2019-03-11T09:41:46.814Z,0.10
2019-03-11T09:44:54.349Z,0.07
2019-03-11T09:48:02.235Z,0.00
2019-03-11T09:51:09.908Z,0.10
2019-03-11T09:54:17.187Z,0.07
2019-03-11T09:57:24.816Z,0.10
2019-03-11T10:00:32.419Z,0.10
2019-03-11T10:03:39.977Z,0.20
2019-03-11T10:06:47.754Z,0.10
2019-03-11T10:09:55.131Z,0.20
2019-03-11T10:13:02.469Z,0.40
2019-03-11T10:16:09.716Z,0.10
2019-03-11T10:19:17.425Z,0.10
2019-03-11T10:22:25.328Z,0.27
2019-03-11T10:25:33.030Z,0.20
2019-03-11T10:28:40.934Z,0.20
2019-03-11T10:31:48.222Z,0.10
2019-03-11T10:34:55.718Z,0.07
2019-03-11T10:38:03.454Z,0.13
2019-03-11T10:41:11.191Z,0.10
2019-03-11T10:44:18.976Z,0.17
2019-03-11T10:47:26.558Z,0.20
2019-03-11T10:50:34.089Z,0.20
2019-03-11T10:53:41.477Z,0.30
2019-03-11T10:56:48.969Z,0.20
2019-03-11T10:59:56.650Z,0.20
2019-03-11T11:03:04.630Z,0.27
2019-03-11T11:06:12.787Z,0.20
2019-03-11T11:09:20.456Z,0.30
2019-03-11T11:12:27.979Z,0.20
2019-03-11T11:15:35.356Z,0.30
2019-03-11T11:18:43.059Z,0.20
2019-03-11T11:21:50.456Z,0.10
2019-03-11T11:24:57.986Z,0.10
2019-03-11T11:28:05.879Z,0.20
2019-03-11T11:31:13.322Z,1.10
2019-03-11T11:34:21.121Z,0.50
2019-03-11T11:37:28.660Z,0.77
2019-03-11T11:40:36.173Z,0.50
2019-03-11T11:43:43.757Z,0.33
2019-03-11T11:46:51.329Z,0.40
2019-03-11T11:49:58.919Z,0.33
2019-03-11T11:53:06.327Z,0.23
2019-03-11T11:56:14.014Z,0.30
2019-03-11T11:59:22.082Z,0.47
2019-03-11T12:02:29.812Z,0.20
2019-03-11T12:05:37.560Z,0.40
2019-03-11T12:08:45.147Z,0.60
2019-03-11T12:11:53.053Z,0.30
2019-03-11T12:15:00.575Z,0.27
2019-03-11T12:18:08.323Z,0.33
2019-03-11T12:21:16.118Z,0.10
2019-03-11T12:24:23.550Z,0.20
2019-03-11T12:27:31.025Z,0.40
2019-03-11T12:30:39.278Z,0.33
2019-03-11T12:33:46.662Z,0.40
2019-03-11T12:36:53.954Z,0.30
2019-03-11T12:40:01.505Z,0.57
2019-03-11T12:43:28.910Z,0.40
2019-03-11T12:46:36.287Z,0.30
2019-03-11T12:49:43.684Z,0.50
2019-03-11T12:52:51.192Z,0.20
2019-03-11T12:55:59.093Z,0.13
2019-03-11T12:59:07.109Z,0.30
2019-03-11T13:02:14.401Z,0.30
2019-03-11T13:05:22.311Z,0.30
2019-03-11T13:08:31.326Z,0.20
2019-03-11T13:11:38.839Z,0.13
2019-03-11T13:14:46.452Z,0.37
2019-03-11T13:17:54.077Z,0.20
2019-03-11T13:21:13.399Z,0.40
2019-03-11T13:24:20.875Z,0.33
2019-03-11T13:27:28.155Z,0.57
2019-03-11T13:30:35.492Z,0.20
2019-03-11T13:33:43.280Z,0.20
2019-03-11T13:36:51.161Z,0.10
2019-03-11T13:39:58.816Z,0.40
2019-03-11T13:43:06.899Z,0.50
2019-03-11T13:46:15.130Z,0.20
2019-03-11T13:49:22.970Z,0.40
2019-03-11T13:52:31.300Z,0.23
2019-03-11T13:55:38.845Z,0.30
2019-03-11T13:58:46.733Z,0.30
2019-03-11T14:01:54.569Z,0.40
2019-03-11T14:05:02.261Z,0.30
2019-03-11T14:08:11.764Z,0.30
2019-03-11T14:11:19.650Z,0.30
2019-03-11T14:14:27.255Z,0.40
2019-03-11T14:17:35.398Z,0.20
2019-03-11T14:20:43.046Z,0.17
2019-03-11T14:23:50.627Z,0.13
2019-03-11T14:26:58.217Z,0.17
2019-03-11T14:30:07.787Z,0.30
2019-03-11T14:33:15.465Z,0.20
2019-03-11T14:36:23.343Z,0.40
2019-03-11T14:39:31.130Z,0.20
2019-03-11T14:42:38.556Z,0.37
2019-03-11T14:45:46.239Z,0.50
2019-03-11T14:48:53.539Z,0.30
2019-03-11T14:52:01.398Z,0.20
2019-03-11T14:55:08.954Z,0.40
2019-03-11T14:58:17.457Z,0.20
2019-03-11T15:01:24.993Z,0.40
2019-03-11T15:04:35.253Z,0.40
2019-03-11T15:07:42.626Z,0.17
2019-03-11T15:10:49.941Z,0.17
2019-03-11T15:13:57.804Z,0.17
2019-03-11T15:17:05.408Z,0.33
2019-03-11T15:20:13.832Z,0.20
2019-03-11T15:23:21.652Z,0.40
2019-03-11T15:26:29.904Z,0.90
2019-03-11T15:29:37.848Z,0.53
2019-03-11T15:32:45.636Z,0.27
2019-03-11T15:35:57.859Z,0.20
2019-03-11T15:39:06.243Z,0.23
2019-03-11T15:42:13.806Z,0.50
2019-03-11T15:45:21.444Z,0.10
2019-03-11T15:48:29.171Z,0.43
2019-03-11T15:51:37.383Z,0.40
2019-03-11T15:54:45.453Z,0.80
2019-03-11T15:57:53.447Z,0.50
2019-03-11T16:01:01.314Z,0.70
2019-03-11T16:04:09.157Z,0.50
2019-03-11T16:07:17.684Z,0.60
2019-03-11T16:10:25.689Z,0.50
2019-03-11T16:13:36.390Z,0.80
2019-03-11T16:16:45.601Z,0.97
2019-03-11T16:19:53.737Z,1.70
2019-03-11T16:23:02.288Z,1.00
2019-03-11T16:26:11.418Z,1.20
2019-03-11T16:29:20.046Z,1.00
2019-03-11T16:32:29.690Z,0.80
2019-03-11T16:35:40.050Z,4.83
2019-03-11T16:38:48.195Z,1.37
2019-03-11T16:41:56.953Z,0.80
2019-03-11T16:45:05.743Z,1.30
2019-03-11T16:48:13.912Z,3.67
2019-03-11T16:51:22.595Z,2.77
2019-03-11T16:54:30.633Z,1.20
2019-03-11T16:57:39.113Z,1.83
2019-03-11T17:00:47.783Z,0.73
2019-03-11T17:03:55.706Z,1.10
2019-03-11T17:07:04.121Z,1.40
2019-03-11T17:10:12.502Z,1.30
2019-03-11T17:13:21.066Z,1.57
2019-03-11T17:16:29.066Z,0.80
2019-03-11T17:19:36.801Z,1.00
2019-03-11T17:22:44.712Z,1.20
2019-03-11T17:25:52.918Z,1.50
2019-03-11T17:29:01.697Z,2.07
2019-03-11T17:32:11.072Z,2.07
2019-03-11T17:35:18.890Z,2.70
2019-03-11T17:38:27.854Z,2.43
2019-03-11T17:41:35.937Z,2.00
2019-03-11T17:44:43.894Z,3.40
2019-03-11T17:47:53.408Z,1.80
2019-03-11T17:51:01.195Z,1.70
2019-03-11T17:54:09.340Z,1.73
2019-03-11T17:57:18.684Z,1.43
2019-03-11T18:00:29.046Z,1.10
2019-03-11T18:03:37.193Z,1.03
2019-03-11T18:06:45.126Z,1.70
2019-03-11T18:09:53.249Z,1.13
2019-03-11T18:13:01.414Z,0.87
2019-03-11T18:16:09.730Z,0.70
2019-03-11T18:19:17.584Z,0.80
2019-03-11T18:22:25.669Z,1.20
2019-03-11T18:25:33.295Z,1.20
2019-03-11T18:28:41.084Z,1.03
2019-03-11T18:31:48.788Z,0.83
2019-03-11T18:34:56.759Z,1.40
2019-03-11T18:38:05.036Z,1.00
2019-03-11T18:41:13.364Z,1.03
2019-03-11T18:44:21.281Z,1.30
2019-03-11T18:47:28.909Z,1.70
2019-03-11T18:50:36.852Z,1.00
2019-03-11T18:53:44.818Z,1.47
2019-03-11T18:56:52.306Z,1.50
2019-03-11T19:00:00.424Z,1.23
2019-03-11T19:03:08.409Z,1.50
2019-03-11T19:06:16.340Z,1.80
2019-03-11T19:09:23.708Z,2.83
2019-03-11T19:12:31.166Z,1.30
2019-03-11T19:15:38.917Z,1.50
2019-03-11T19:18:46.337Z,1.83
2019-03-11T19:21:54.214Z,1.53
2019-03-11T19:25:02.014Z,1.50
2019-03-11T19:28:09.812Z,1.23
2019-03-11T19:31:17.869Z,1.90
2019-03-11T19:34:25.251Z,1.70
2019-03-11T19:37:33.041Z,2.30
2019-03-11T19:40:40.757Z,1.90
2019-03-11T19:43:48.801Z,1.50
2019-03-11T19:46:56.827Z,1.67
2019-03-11T19:50:07.123Z,1.10
2019-03-11T19:53:14.713Z,1.27
2019-03-11T19:56:22.281Z,0.97
2019-03-11T19:59:30.204Z,1.50
2019-03-11T20:02:38.312Z,1.10
2019-03-11T20:05:45.994Z,1.00
2019-03-11T20:08:53.697Z,1.30
2019-03-11T20:12:02.178Z,1.00
2019-03-11T20:15:10.777Z,0.87
2019-03-11T20:18:18.509Z,0.90
2019-03-11T20:21:26.831Z,1.23
2019-03-11T20:24:34.875Z,2.93
2019-03-11T20:27:42.572Z,0.97
2019-03-11T20:30:50.327Z,0.90
2019-03-11T20:33:58.219Z,1.30
2019-03-11T20:37:06.075Z,1.03
2019-03-11T20:40:13.869Z,1.03
2019-03-11T20:43:22.062Z,1.07
2019-03-11T20:46:29.827Z,0.70
2019-03-11T20:49:38.089Z,0.70
2019-03-11T20:52:46.014Z,0.90
2019-03-11T20:55:53.695Z,0.90
2019-03-11T20:59:01.363Z,0.83
2019-03-11T21:02:28.476Z,1.10
2019-03-11T21:05:36.357Z,1.40
2019-03-11T21:08:45.587Z,1.30
2019-03-11T21:11:54.752Z,1.00
2019-03-11T21:15:02.936Z,1.50
2019-03-11T21:18:10.370Z,3.30
2019-03-11T21:21:18.001Z,2.97
2019-03-11T21:24:25.551Z,1.73
2019-03-11T21:27:33.687Z,1.17
2019-03-11T21:30:41.240Z,1.20
2019-03-11T21:33:58.322Z,1.00
2019-03-11T21:36:58.540Z,1.07
2019-03-11T21:40:08.193Z,1.67
2019-03-11T21:43:16.014Z,1.00
2019-03-11T21:46:23.270Z,1.10
2019-03-11T21:49:31.215Z,1.00
2019-03-11T21:52:39.016Z,0.70
2019-03-11T21:55:46.478Z,0.80
2019-03-11T21:58:53.924Z,0.90
2019-03-11T22:02:01.384Z,0.70
2019-03-11T22:05:08.955Z,0.70
2019-03-11T22:08:16.502Z,0.67
2019-03-11T22:11:24.562Z,0.87
2019-03-11T22:14:32.670Z,0.70
2019-03-11T22:17:41.195Z,1.03
2019-03-11T22:20:48.917Z,0.90
2019-03-11T22:23:56.238Z,0.70
2019-03-11T22:27:03.723Z,0.90
2019-03-11T22:30:14.843Z,0.77
2019-03-11T22:33:22.234Z,0.53
2019-03-11T22:36:29.523Z,0.73
2019-03-11T22:39:37.201Z,0.37
2019-03-11T22:42:45.051Z,0.50
2019-03-11T22:45:53.279Z,0.87
2019-03-11T22:49:00.646Z,1.10
2019-03-11T22:52:08.768Z,0.70
2019-03-11T22:55:17.748Z,0.70
2019-03-11T22:58:25.201Z,0.70
2019-03-11T23:01:33.004Z,0.77
2019-03-11T23:04:40.468Z,0.80
2019-03-11T23:07:48.211Z,0.77
2019-03-11T23:10:56.057Z,0.70
2019-03-11T23:14:03.650Z,0.70
2019-03-11T23:17:10.935Z,0.57
2019-03-11T23:20:18.330Z,0.60
2019-03-11T23:23:25.852Z,0.93
2019-03-11T23:26:33.225Z,0.93
2019-03-11T23:29:40.515Z,0.70
2019-03-11T23:32:48.085Z,0.77
2019-03-11T23:35:55.798Z,0.73
2019-03-11T23:39:06.192Z,0.73
2019-03-11T23:42:13.571Z,0.70
2019-03-11T23:45:21.071Z,0.70
2019-03-11T23:48:28.922Z,0.67
2019-03-11T23:51:37.648Z,0.63
2019-03-11T23:54:45.057Z,0.50
2019-03-11T23:57:52.634Z,0.47
